sensor_id;sensor_type;location;lat;lon;timestamp;pressure;altitude;pressure_sealevel;temperature;humidity
76998;BME280;65930;48.874;10.734;2023-02-05T00:02:01;97952.50;;;-1.38;75.86
76998;BME280;65930;48.874;10.734;2023-02-05T00:04:29;97966.66;;;-1.46;76.30
76998;BME280;65930;48.874;10.734;2023-02-05T00:06:59;97955.78;;;-1.41;76.51
76998;BME280;65930;48.874;10.734;2023-02-05T00:09:27;97950.13;;;-1.60;76.79
76998;BME280;65930;48.874;10.734;2023-02-05T00:11:55;97957.50;;;-1.70;77.32
76998;BME280;65930;48.874;10.734;2023-02-05T00:14:23;97957.16;;;-1.54;76.96
76998;BME280;65930;48.874;10.734;2023-02-05T00:16:52;97948.75;;;-1.62;76.97
76998;BME280;65930;48.874;10.734;2023-02-05T00:19:20;97949.09;;;-1.74;78.14
76998;BME280;65930;48.874;10.734;2023-02-05T00:21:48;97950.97;;;-1.64;77.95
76998;BME280;65930;48.874;10.734;2023-02-05T00:24:17;97949.31;;;-1.60;78.01
76998;BME280;65930;48.874;10.734;2023-02-05T00:26:45;97950.72;;;-1.73;77.23
76998;BME280;65930;48.874;10.734;2023-02-05T00:29:13;97948.03;;;-1.98;78.28
76998;BME280;65930;48.874;10.734;2023-02-05T00:31:41;97946.69;;;-2.01;78.64
76998;BME280;65930;48.874;10.734;2023-02-05T00:34:09;97948.84;;;-1.88;78.79
76998;BME280;65930;48.874;10.734;2023-02-05T00:36:37;97941.78;;;-1.84;78.49
76998;BME280;65930;48.874;10.734;2023-02-05T00:39:04;97943.13;;;-1.91;78.78
76998;BME280;65930;48.874;10.734;2023-02-05T00:41:36;97947.78;;;-2.02;78.38
76998;BME280;65930;48.874;10.734;2023-02-05T00:44:04;97938.00;;;-2.08;78.57
76998;BME280;65930;48.874;10.734;2023-02-05T00:46:32;97933.38;;;-1.97;78.68
76998;BME280;65930;48.874;10.734;2023-02-05T00:49:00;97941.28;;;-2.16;79.83
76998;BME280;65930;48.874;10.734;2023-02-05T00:51:28;97926.31;;;-2.08;78.94
76998;BME280;65930;48.874;10.734;2023-02-05T00:53:56;97929.84;;;-1.98;79.10
76998;BME280;65930;48.874;10.734;2023-02-05T00:56:24;97932.56;;;-2.18;79.36
76998;BME280;65930;48.874;10.734;2023-02-05T00:58:53;97917.91;;;-1.97;78.45
76998;BME280;65930;48.874;10.734;2023-02-05T01:01:24;97927.66;;;-1.96;79.08
76998;BME280;65930;48.874;10.734;2023-02-05T01:03:51;97931.47;;;-1.92;78.58
76998;BME280;65930;48.874;10.734;2023-02-05T01:06:19;97926.00;;;-1.82;77.88
76998;BME280;65930;48.874;10.734;2023-02-05T01:08:47;97933.59;;;-1.73;77.61
76998;BME280;65930;48.874;10.734;2023-02-05T01:13:43;97951.03;;;-2.00;78.54
76998;BME280;65930;48.874;10.734;2023-02-05T01:16:13;97942.34;;;-2.07;78.90
76998;BME280;65930;48.874;10.734;2023-02-05T01:18:41;97925.25;;;-2.12;78.77
76998;BME280;65930;48.874;10.734;2023-02-05T01:21:09;97942.59;;;-1.83;77.69
76998;BME280;65930;48.874;10.734;2023-02-05T01:23:37;97939.56;;;-1.71;77.83
76998;BME280;65930;48.874;10.734;2023-02-05T01:26:05;97917.91;;;-1.92;77.54
76998;BME280;65930;48.874;10.734;2023-02-05T01:28:33;97926.88;;;-2.11;78.70
76998;BME280;65930;48.874;10.734;2023-02-05T01:31:01;97933.13;;;-2.26;78.51
76998;BME280;65930;48.874;10.734;2023-02-05T01:33:30;97949.41;;;-2.21;79.46
76998;BME280;65930;48.874;10.734;2023-02-05T01:35:58;97933.69;;;-2.34;78.99
76998;BME280;65930;48.874;10.734;2023-02-05T01:38:26;97926.06;;;-2.42;79.35
76998;BME280;65930;48.874;10.734;2023-02-05T01:40:54;97921.19;;;-2.35;79.75
76998;BME280;65930;48.874;10.734;2023-02-05T01:43:25;97934.22;;;-2.27;79.07
76998;BME280;65930;48.874;10.734;2023-02-05T01:46:10;97928.78;;;-2.17;79.24
76998;BME280;65930;48.874;10.734;2023-02-05T01:48:47;97921.19;;;-2.25;79.31
76998;BME280;65930;48.874;10.734;2023-02-05T01:51:18;97895.69;;;-2.34;78.66
76998;BME280;65930;48.874;10.734;2023-02-05T01:53:48;97918.19;;;-2.29;79.38
76998;BME280;65930;48.874;10.734;2023-02-05T01:56:20;97916.31;;;-2.38;79.11
76998;BME280;65930;48.874;10.734;2023-02-05T01:58:54;97910.34;;;-2.40;79.64
76998;BME280;65930;48.874;10.734;2023-02-05T02:01:23;97920.13;;;-2.44;80.24
76998;BME280;65930;48.874;10.734;2023-02-05T02:03:57;97909.50;;;-2.61;80.41
76998;BME280;65930;48.874;10.734;2023-02-05T02:06:31;97898.41;;;-2.70;81.03
76998;BME280;65930;48.874;10.734;2023-02-05T02:09:01;97907.09;;;-2.62;80.74
76998;BME280;65930;48.874;10.734;2023-02-05T02:11:33;97900.59;;;-2.61;80.78
76998;BME280;65930;48.874;10.734;2023-02-05T02:14:05;97879.41;;;-2.64;80.18
76998;BME280;65930;48.874;10.734;2023-02-05T02:16:37;97874.53;;;-2.62;80.04
76998;BME280;65930;48.874;10.734;2023-02-05T02:19:16;97894.63;;;-2.38;79.76
76998;BME280;65930;48.874;10.734;2023-02-05T02:22:14;97891.91;;;-2.38;80.43
76998;BME280;65930;48.874;10.734;2023-02-05T02:25:10;97898.41;;;-2.29;79.71
76998;BME280;65930;48.874;10.734;2023-02-05T02:27:49;97903.84;;;-2.29;79.36
76998;BME280;65930;48.874;10.734;2023-02-05T02:30:25;97887.56;;;-2.39;79.49
76998;BME280;65930;48.874;10.734;2023-02-05T02:33:03;97888.06;;;-2.37;79.69
76998;BME280;65930;48.874;10.734;2023-02-05T02:35:42;97884.28;;;-2.21;79.01
76998;BME280;65930;48.874;10.734;2023-02-05T02:38:17;97892.91;;;-2.09;78.67
76998;BME280;65930;48.874;10.734;2023-02-05T02:40:51;97866.91;;;-2.20;78.86
76998;BME280;65930;48.874;10.734;2023-02-05T02:43:25;97876.09;;;-2.11;78.71
76998;BME280;65930;48.874;10.734;2023-02-05T02:46:00;97860.66;;;-2.15;78.45
76998;BME280;65930;48.874;10.734;2023-02-05T02:48:34;97861.97;;;-2.08;78.46
76998;BME280;65930;48.874;10.734;2023-02-05T02:51:07;97862.53;;;-2.11;78.54
76998;BME280;65930;48.874;10.734;2023-02-05T02:53:40;97865.75;;;-1.99;78.63
76998;BME280;65930;48.874;10.734;2023-02-05T02:56:11;97869.53;;;-1.90;77.67
76998;BME280;65930;48.874;10.734;2023-02-05T02:58:45;97835.38;;;-2.11;78.16
76998;BME280;65930;48.874;10.734;2023-02-05T03:01:18;97849.47;;;-1.99;77.99
76998;BME280;65930;48.874;10.734;2023-02-05T03:03:51;97857.09;;;-2.01;77.70
76998;BME280;65930;48.874;10.734;2023-02-05T03:06:21;97843.78;;;-2.12;78.27
76998;BME280;65930;48.874;10.734;2023-02-05T03:08:55;97861.16;;;-2.08;77.65
76998;BME280;65930;48.874;10.734;2023-02-05T03:11:24;97838.69;;;-2.29;78.10
76998;BME280;65930;48.874;10.734;2023-02-05T03:13:55;97833.53;;;-2.36;78.10
76998;BME280;65930;48.874;10.734;2023-02-05T03:16:26;97853.84;;;-2.23;78.08
76998;BME280;65930;48.874;10.734;2023-02-05T03:18:55;97851.13;;;-2.18;78.25
76998;BME280;65930;48.874;10.734;2023-02-05T03:21:28;97848.16;;;-2.16;78.35
76998;BME280;65930;48.874;10.734;2023-02-05T03:23:57;97825.66;;;-2.37;77.85
76998;BME280;65930;48.874;10.734;2023-02-05T03:26:28;97828.09;;;-2.31;78.14
76998;BME280;65930;48.874;10.734;2023-02-05T03:29:01;97828.91;;;-2.25;78.06
76998;BME280;65930;48.874;10.734;2023-02-05T03:31:38;97847.31;;;-2.07;77.54
76998;BME280;65930;48.874;10.734;2023-02-05T03:34:21;97838.13;;;-2.21;77.61
76998;BME280;65930;48.874;10.734;2023-02-05T03:37:03;97851.13;;;-2.18;77.47
76998;BME280;65930;48.874;10.734;2023-02-05T03:39:44;97843.56;;;-2.21;77.78
76998;BME280;65930;48.874;10.734;2023-02-05T03:42:27;97848.41;;;-2.18;77.12
76998;BME280;65930;48.874;10.734;2023-02-05T03:45:16;97842.97;;;-2.13;77.84
76998;BME280;65930;48.874;10.734;2023-02-05T03:48:04;97838.63;;;-2.14;77.75
76998;BME280;65930;48.874;10.734;2023-02-05T03:50:46;97836.22;;;-2.26;78.35
76998;BME280;65930;48.874;10.734;2023-02-05T03:53:22;97817.25;;;-2.41;78.89
76998;BME280;65930;48.874;10.734;2023-02-05T03:56:01;97817.25;;;-2.46;78.24
76998;BME280;65930;48.874;10.734;2023-02-05T03:58:36;97834.88;;;-2.33;78.03
76998;BME280;65930;48.874;10.734;2023-02-05T04:01:09;97842.50;;;-2.40;77.74
76998;BME280;65930;48.874;10.734;2023-02-05T04:03:39;97826.47;;;-2.27;78.08
76998;BME280;65930;48.874;10.734;2023-02-05T04:06:07;97820.75;;;-2.20;77.37
76998;BME280;65930;48.874;10.734;2023-02-05T04:08:35;97797.69;;;-2.28;77.39
76998;BME280;65930;48.874;10.734;2023-02-05T04:11:03;97821.28;;;-2.18;76.98
76998;BME280;65930;48.874;10.734;2023-02-05T04:13:32;97827.28;;;-2.26;77.91
76998;BME280;65930;48.874;10.734;2023-02-05T04:16:01;97822.34;;;-2.19;77.75
76998;BME280;65930;48.874;10.734;2023-02-05T04:18:30;97818.56;;;-2.18;76.97
76998;BME280;65930;48.874;10.734;2023-02-05T04:20:58;97815.84;;;-2.18;77.51
76998;BME280;65930;48.874;10.734;2023-02-05T04:23:27;97832.44;;;-2.19;76.88
76998;BME280;65930;48.874;10.734;2023-02-05T04:25:55;97825.63;;;-2.17;76.95
76998;BME280;65930;48.874;10.734;2023-02-05T04:28:23;97818.28;;;-2.11;76.47
76998;BME280;65930;48.874;10.734;2023-02-05T04:30:50;97825.03;;;-2.09;76.23
76998;BME280;65930;48.874;10.734;2023-02-05T04:33:18;97822.31;;;-2.09;76.86
76998;BME280;65930;48.874;10.734;2023-02-05T04:35:48;97819.63;;;-2.09;77.14
76998;BME280;65930;48.874;10.734;2023-02-05T04:38:15;97821.22;;;-2.03;76.57
76998;BME280;65930;48.874;10.734;2023-02-05T04:40:44;97817.97;;;-2.05;76.45
76998;BME280;65930;48.874;10.734;2023-02-05T04:43:12;97806.59;;;-2.12;76.59
76998;BME280;65930;48.874;10.734;2023-02-05T04:45:39;97808.22;;;-2.06;76.88
76998;BME280;65930;48.874;10.734;2023-02-05T04:48:07;97804.97;;;-2.08;77.05
76998;BME280;65930;48.874;10.734;2023-02-05T04:50:36;97800.06;;;-2.06;76.18
76998;BME280;65930;48.874;10.734;2023-02-05T04:53:06;97801.69;;;-2.05;76.67
76998;BME280;65930;48.874;10.734;2023-02-05T04:55:34;97811.47;;;-2.09;77.04
76998;BME280;65930;48.874;10.734;2023-02-05T04:58:02;97814.16;;;-2.04;76.93
76998;BME280;65930;48.874;10.734;2023-02-05T05:00:30;97830.44;;;-1.94;76.55
76998;BME280;65930;48.874;10.734;2023-02-05T05:02:58;97835.00;;;-1.84;76.06
76998;BME280;65930;48.874;10.734;2023-02-05T05:05:26;97824.41;;;-1.86;76.22
76998;BME280;65930;48.874;10.734;2023-02-05T05:07:54;97826.00;;;-1.69;76.10
76998;BME280;65930;48.874;10.734;2023-02-05T05:10:23;97824.94;;;-1.73;74.62
76998;BME280;65930;48.874;10.734;2023-02-05T05:12:51;97818.44;;;-1.77;75.06
76998;BME280;65930;48.874;10.734;2023-02-05T05:15:19;97822.22;;;-1.79;74.58
76998;BME280;65930;48.874;10.734;2023-02-05T05:17:47;97826.00;;;-1.74;74.92
76998;BME280;65930;48.874;10.734;2023-02-05T05:20:15;97813.75;;;-1.72;74.36
76998;BME280;65930;48.874;10.734;2023-02-05T05:22:43;97809.13;;;-1.66;74.85
76998;BME280;65930;48.874;10.734;2023-02-05T05:25:11;97791.78;;;-1.75;74.60
76998;BME280;65930;48.874;10.734;2023-02-05T05:27:40;97801.28;;;-1.73;74.52
76998;BME280;65930;48.874;10.734;2023-02-05T05:30:10;97794.31;;;-1.99;74.84
76998;BME280;65930;48.874;10.734;2023-02-05T05:32:38;97809.19;;;-1.82;74.29
76998;BME280;65930;48.874;10.734;2023-02-05T05:35:06;97801.81;;;-1.71;74.52
76998;BME280;65930;48.874;10.734;2023-02-05T05:37:34;97800.72;;;-1.70;74.35
76998;BME280;65930;48.874;10.734;2023-02-05T05:40:02;97808.59;;;-1.63;73.42
76998;BME280;65930;48.874;10.734;2023-02-05T05:42:49;97799.06;;;-1.66;73.89
76998;BME280;65930;48.874;10.734;2023-02-05T05:45:34;97805.06;;;-1.69;73.24
76998;BME280;65930;48.874;10.734;2023-02-05T05:48:03;97811.88;;;-1.71;73.58
76998;BME280;65930;48.874;10.734;2023-02-05T05:50:31;97815.16;;;-1.80;73.89
76998;BME280;65930;48.874;10.734;2023-02-05T05:52:58;97802.66;;;-1.81;73.97
76998;BME280;65930;48.874;10.734;2023-02-05T05:55:26;97815.72;;;-1.77;73.83
76998;BME280;65930;48.874;10.734;2023-02-05T05:57:56;97821.94;;;-1.77;73.38
76998;BME280;65930;48.874;10.734;2023-02-05T06:00:23;97815.41;;;-1.71;73.55
76998;BME280;65930;48.874;10.734;2023-02-05T06:02:51;97822.72;;;-1.71;73.55
76998;BME280;65930;48.874;10.734;2023-02-05T06:05:19;97817.84;;;-1.69;74.09
76998;BME280;65930;48.874;10.734;2023-02-05T06:07:47;97816.75;;;-1.63;73.34
76998;BME280;65930;48.874;10.734;2023-02-05T06:10:15;97816.19;;;-1.65;73.26
76998;BME280;65930;48.874;10.734;2023-02-05T06:12:43;97815.16;;;-1.74;73.46
76998;BME280;65930;48.874;10.734;2023-02-05T06:15:13;97819.00;;;-1.86;74.18
76998;BME280;65930;48.874;10.734;2023-02-05T06:17:41;97819.28;;;-1.87;74.34
76998;BME280;65930;48.874;10.734;2023-02-05T06:20:10;97817.09;;;-1.85;74.87
76998;BME280;65930;48.874;10.734;2023-02-05T06:22:38;97829.88;;;-1.91;74.80
76998;BME280;65930;48.874;10.734;2023-02-05T06:25:07;97816.84;;;-1.89;74.69
76998;BME280;65930;48.874;10.734;2023-02-05T06:27:35;97816.84;;;-1.89;74.65
76998;BME280;65930;48.874;10.734;2023-02-05T06:30:03;97814.13;;;-1.89;74.88
76998;BME280;65930;48.874;10.734;2023-02-05T06:32:33;97823.09;;;-1.88;74.64
76998;BME280;65930;48.874;10.734;2023-02-05T06:35:01;97824.97;;;-1.84;75.16
76998;BME280;65930;48.874;10.734;2023-02-05T06:37:28;97828.78;;;-1.85;74.29
76998;BME280;65930;48.874;10.734;2023-02-05T06:40:13;97822.25;;;-1.84;74.66
76998;BME280;65930;48.874;10.734;2023-02-05T06:42:44;97819.56;;;-1.94;74.93
76998;BME280;65930;48.874;10.734;2023-02-05T06:45:11;97802.16;;;-1.83;74.48
76998;BME280;65930;48.874;10.734;2023-02-05T06:47:41;97802.41;;;-1.84;75.07
76998;BME280;65930;48.874;10.734;2023-02-05T06:50:09;97809.16;;;-1.77;74.94
76998;BME280;65930;48.874;10.734;2023-02-05T06:52:37;97807.00;;;-1.74;75.40
76998;BME280;65930;48.874;10.734;2023-02-05T06:55:05;97805.63;;;-1.72;74.15
76998;BME280;65930;48.874;10.734;2023-02-05T06:57:33;97795.59;;;-1.77;74.29
76998;BME280;65930;48.874;10.734;2023-02-05T07:00:02;97794.50;;;-1.75;74.79
76998;BME280;65930;48.874;10.734;2023-02-05T07:02:30;97801.75;;;-1.61;74.71
76998;BME280;65930;48.874;10.734;2023-02-05T07:05:00;97804.72;;;-1.57;74.14
76998;BME280;65930;48.874;10.734;2023-02-05T07:07:28;97810.13;;;-1.52;74.17
76998;BME280;65930;48.874;10.734;2023-02-05T07:09:56;97809.06;;;-1.56;73.99
76998;BME280;65930;48.874;10.734;2023-02-05T07:12:24;97809.53;;;-1.44;74.13
76998;BME280;65930;48.874;10.734;2023-02-05T07:14:52;97815.75;;;-1.39;74.42
76998;BME280;65930;48.874;10.734;2023-02-05T07:17:20;97817.09;;;-1.31;74.27
76998;BME280;65930;48.874;10.734;2023-02-05T07:19:48;97812.72;;;-1.27;73.74
76998;BME280;65930;48.874;10.734;2023-02-05T07:22:17;97818.09;;;-1.17;74.59
76998;BME280;65930;48.874;10.734;2023-02-05T07:24:45;97809.84;;;-1.07;73.71
76998;BME280;65930;48.874;10.734;2023-02-05T07:27:13;97810.31;;;-0.95;74.30
76998;BME280;65930;48.874;10.734;2023-02-05T07:29:41;97809.97;;;-0.88;73.72
76998;BME280;65930;48.874;10.734;2023-02-05T07:32:09;97812.38;;;-0.81;73.91
76998;BME280;65930;48.874;10.734;2023-02-05T07:34:37;97822.94;;;-0.75;73.46
76998;BME280;65930;48.874;10.734;2023-02-05T07:37:05;97825.59;;;-0.70;72.99
76998;BME280;65930;48.874;10.734;2023-02-05T07:39:34;97827.53;;;-0.70;73.16
76998;BME280;65930;48.874;10.734;2023-02-05T07:42:02;97827.91;;;-0.53;72.86
76998;BME280;65930;48.874;10.734;2023-02-05T07:44:30;97815.53;;;-0.40;73.28
76998;BME280;65930;48.874;10.734;2023-02-05T07:46:58;97817.41;;;-0.36;73.80
76998;BME280;65930;48.874;10.734;2023-02-05T07:49:26;97820.44;;;-0.37;72.62
76998;BME280;65930;48.874;10.734;2023-02-05T07:51:54;97813.00;;;-0.32;72.64
76998;BME280;65930;48.874;10.734;2023-02-05T07:54:22;97827.97;;;-0.29;73.13
76998;BME280;65930;48.874;10.734;2023-02-05T07:56:51;97811.63;;;-0.29;73.00
76998;BME280;65930;48.874;10.734;2023-02-05T07:59:20;97801.66;;;-0.39;73.69
76998;BME280;65930;48.874;10.734;2023-02-05T08:01:48;97805.47;;;-0.40;73.24
76998;BME280;65930;48.874;10.734;2023-02-05T08:04:16;97800.06;;;-0.45;72.81
76998;BME280;65930;48.874;10.734;2023-02-05T08:06:44;97796.97;;;-0.33;72.86
76998;BME280;65930;48.874;10.734;2023-02-05T08:09:12;97789.81;;;-0.53;73.40
76998;BME280;65930;48.874;10.734;2023-02-05T08:11:41;97785.75;;;-0.56;73.11
76998;BME280;65930;48.874;10.734;2023-02-05T08:14:10;97779.19;;;-0.55;73.58
76998;BME280;65930;48.874;10.734;2023-02-05T08:16:38;97777.19;;;-0.44;74.20
76998;BME280;65930;48.874;10.734;2023-02-05T08:19:12;97766.72;;;-0.32;73.62
76998;BME280;65930;48.874;10.734;2023-02-05T08:21:41;97761.31;;;-0.37;73.46
76998;BME280;65930;48.874;10.734;2023-02-05T08:24:09;97761.97;;;-0.45;73.76
76998;BME280;65930;48.874;10.734;2023-02-05T08:26:37;97761.44;;;-0.47;73.60
76998;BME280;65930;48.874;10.734;2023-02-05T08:29:05;97752.28;;;-0.56;74.14
76998;BME280;65930;48.874;10.734;2023-02-05T08:31:36;97756.78;;;-0.47;73.92
76998;BME280;65930;48.874;10.734;2023-02-05T08:34:04;97756.06;;;-0.52;73.67
76998;BME280;65930;48.874;10.734;2023-02-05T08:36:32;97748.88;;;-0.43;74.58
76998;BME280;65930;48.874;10.734;2023-02-05T08:39:00;97756.47;;;-0.40;73.80
76998;BME280;65930;48.874;10.734;2023-02-05T08:41:28;97763.34;;;-0.48;74.76
76998;BME280;65930;48.874;10.734;2023-02-05T08:43:56;97770.03;;;-0.35;74.10
76998;BME280;65930;48.874;10.734;2023-02-05T08:46:24;97761.81;;;-0.30;74.03
76998;BME280;65930;48.874;10.734;2023-02-05T08:49:04;97766.03;;;-0.19;74.39
76998;BME280;65930;48.874;10.734;2023-02-05T08:51:32;97763.59;;;-0.20;74.49
76998;BME280;65930;48.874;10.734;2023-02-05T08:54:01;97757.28;;;-0.16;74.25
76998;BME280;65930;48.874;10.734;2023-02-05T08:56:29;97766.56;;;-0.17;73.99
76998;BME280;65930;48.874;10.734;2023-02-05T08:58:57;97765.72;;;-0.17;73.90
76998;BME280;65930;48.874;10.734;2023-02-05T09:01:25;97765.56;;;-0.02;73.55
76998;BME280;65930;48.874;10.734;2023-02-05T09:03:53;97760.50;;;-0.14;73.94
76998;BME280;65930;48.874;10.734;2023-02-05T09:06:22;97767.03;;;-0.10;73.37
76998;BME280;65930;48.874;10.734;2023-02-05T09:08:50;97757.16;;;-0.06;73.77
76998;BME280;65930;48.874;10.734;2023-02-05T09:11:20;97759.69;;;0.10;73.22
76998;BME280;65930;48.874;10.734;2023-02-05T09:13:48;97753.53;;;0.23;73.17
76998;BME280;65930;48.874;10.734;2023-02-05T09:16:16;97741.00;;;0.22;73.82
76998;BME280;65930;48.874;10.734;2023-02-05T09:18:44;97737.75;;;0.20;73.59
76998;BME280;65930;48.874;10.734;2023-02-05T09:21:12;97740.41;;;0.25;73.82
76998;BME280;65930;48.874;10.734;2023-02-05T09:23:41;97725.34;;;0.32;73.79
76998;BME280;65930;48.874;10.734;2023-02-05T09:26:09;97725.84;;;0.34;73.85
76998;BME280;65930;48.874;10.734;2023-02-05T09:28:37;97710.44;;;0.25;74.38
76998;BME280;65930;48.874;10.734;2023-02-05T09:31:07;97711.41;;;0.34;74.08
76998;BME280;65930;48.874;10.734;2023-02-05T09:33:35;97710.97;;;0.27;74.04
76998;BME280;65930;48.874;10.734;2023-02-05T09:36:05;97699.94;;;0.37;73.06
76998;BME280;65930;48.874;10.734;2023-02-05T09:38:33;97707.72;;;0.25;74.04
76998;BME280;65930;48.874;10.734;2023-02-05T09:41:07;97695.94;;;0.29;74.14
76998;BME280;65930;48.874;10.734;2023-02-05T09:43:47;97697.41;;;0.22;74.10
76998;BME280;65930;48.874;10.734;2023-02-05T09:46:28;97690.63;;;0.19;74.43
76998;BME280;65930;48.874;10.734;2023-02-05T09:49:03;97695.25;;;0.37;74.22
76998;BME280;65930;48.874;10.734;2023-02-05T09:51:39;97697.69;;;0.39;73.97
76998;BME280;65930;48.874;10.734;2023-02-05T09:54:15;97697.69;;;0.39;74.03
76998;BME280;65930;48.874;10.734;2023-02-05T09:56:46;97708.03;;;0.42;74.30
76998;BME280;65930;48.874;10.734;2023-02-05T09:59:18;97695.34;;;0.51;74.19
76998;BME280;65930;48.874;10.734;2023-02-05T10:01:51;97699.03;;;0.60;74.41
76998;BME280;65930;48.874;10.734;2023-02-05T10:04:19;97695.72;;;0.44;74.17
76998;BME280;65930;48.874;10.734;2023-02-05T10:07:10;97695.44;;;0.46;74.52
76998;BME280;65930;48.874;10.734;2023-02-05T10:13:18;97680.84;;;0.56;74.80
76998;BME280;65930;48.874;10.734;2023-02-05T10:16:19;97683.78;;;0.59;74.13
76998;BME280;65930;48.874;10.734;2023-02-05T10:19:03;97664.00;;;0.67;73.94
76998;BME280;65930;48.874;10.734;2023-02-05T10:22:00;97671.00;;;0.73;74.41
76998;BME280;65930;48.874;10.734;2023-02-05T10:24:56;97658.28;;;0.82;74.70
76998;BME280;65930;48.874;10.734;2023-02-05T10:27:38;97662.22;;;0.76;75.06
76998;BME280;65930;48.874;10.734;2023-02-05T10:30:19;97642.13;;;0.86;74.00
76998;BME280;65930;48.874;10.734;2023-02-05T10:32:55;97646.13;;;0.75;73.98
76998;BME280;65930;48.874;10.734;2023-02-05T10:35:31;97645.56;;;0.78;74.30
76998;BME280;65930;48.874;10.734;2023-02-05T10:38:13;97642.34;;;0.89;73.45
76998;BME280;65930;48.874;10.734;2023-02-05T10:40:43;97646.81;;;0.99;73.54
76998;BME280;65930;48.874;10.734;2023-02-05T10:43:20;97638.63;;;0.99;74.00
76998;BME280;65930;48.874;10.734;2023-02-05T10:45:50;97638.16;;;1.11;73.14
76998;BME280;65930;48.874;10.734;2023-02-05T10:48:34;97640.34;;;1.09;72.72
76998;BME280;65930;48.874;10.734;2023-02-05T10:51:05;97641.34;;;0.99;73.94
76998;BME280;65930;48.874;10.734;2023-02-05T10:53:33;97637.91;;;0.94;73.88
76998;BME280;65930;48.874;10.734;2023-02-05T10:56:03;97640.31;;;0.81;74.62
76998;BME280;65930;48.874;10.734;2023-02-05T10:58:39;97628.88;;;0.79;74.92
76998;BME280;65930;48.874;10.734;2023-02-05T11:01:14;97622.09;;;0.77;75.41
76998;BME280;65930;48.874;10.734;2023-02-05T11:03:52;97614.69;;;0.96;74.27
76998;BME280;65930;48.874;10.734;2023-02-05T11:06:25;97610.25;;;1.14;74.11
76998;BME280;65930;48.874;10.734;2023-02-05T11:08:54;97602.25;;;1.04;75.21
76998;BME280;65930;48.874;10.734;2023-02-05T11:11:25;97606.41;;;1.15;74.77
76998;BME280;65930;48.874;10.734;2023-02-05T11:13:57;97610.84;;;0.97;75.76
76998;BME280;65930;48.874;10.734;2023-02-05T11:16:37;97615.31;;;1.07;75.05
76998;BME280;65930;48.874;10.734;2023-02-05T11:19:17;97620.66;;;1.12;74.65
76998;BME280;65930;48.874;10.734;2023-02-05T11:21:48;97619.13;;;1.06;74.99
76998;BME280;65930;48.874;10.734;2023-02-05T11:24:23;97609.03;;;1.06;74.55
76998;BME280;65930;48.874;10.734;2023-02-05T11:27:10;97613.88;;;1.09;75.30
76998;BME280;65930;48.874;10.734;2023-02-05T11:29:40;97614.31;;;1.16;75.25
76998;BME280;65930;48.874;10.734;2023-02-05T11:32:18;97606.22;;;1.25;74.99
76998;BME280;65930;48.874;10.734;2023-02-05T11:34:47;97606.41;;;1.15;75.44
76998;BME280;65930;48.874;10.734;2023-02-05T11:37:17;97601.22;;;1.00;75.77
76998;BME280;65930;48.874;10.734;2023-02-05T11:39:51;97600.13;;;1.01;76.22
76998;BME280;65930;48.874;10.734;2023-02-05T11:42:23;97601.84;;;0.97;76.53
76998;BME280;65930;48.874;10.734;2023-02-05T11:44:55;97603.31;;;0.89;76.81
76998;BME280;65930;48.874;10.734;2023-02-05T11:47:29;97606.19;;;0.98;77.45
76998;BME280;65930;48.874;10.734;2023-02-05T11:49:58;97603.03;;;0.91;77.99
76998;BME280;65930;48.874;10.734;2023-02-05T11:52:30;97599.41;;;0.95;77.55
76998;BME280;65930;48.874;10.734;2023-02-05T11:55:03;97595.66;;;0.77;78.40
76998;BME280;65930;48.874;10.734;2023-02-05T11:57:33;97603.56;;;0.93;77.79
76998;BME280;65930;48.874;10.734;2023-02-05T12:00:19;97590.59;;;0.84;78.47
76998;BME280;65930;48.874;10.734;2023-02-05T12:03:01;97582.03;;;0.91;78.80
76998;BME280;65930;48.874;10.734;2023-02-05T12:05:34;97581.03;;;1.01;78.10
76998;BME280;65930;48.874;10.734;2023-02-05T12:08:10;97574.28;;;1.12;78.14
76998;BME280;65930;48.874;10.734;2023-02-05T12:10:48;97571.22;;;1.13;78.08
76998;BME280;65930;48.874;10.734;2023-02-05T12:13:24;97573.03;;;1.18;78.13
76998;BME280;65930;48.874;10.734;2023-02-05T12:16:02;97570.31;;;1.18;78.42
76998;BME280;65930;48.874;10.734;2023-02-05T12:18:48;97567.78;;;1.21;78.02
76998;BME280;65930;48.874;10.734;2023-02-05T12:21:29;97571.13;;;1.18;78.82
76998;BME280;65930;48.874;10.734;2023-02-05T12:24:23;97568.00;;;1.25;78.76
76998;BME280;65930;48.874;10.734;2023-02-05T12:27:04;97567.19;;;1.11;79.19
76998;BME280;65930;48.874;10.734;2023-02-05T12:29:51;97564.56;;;1.06;78.91
76998;BME280;65930;48.874;10.734;2023-02-05T12:32:35;97560.72;;;1.07;79.44
76998;BME280;65930;48.874;10.734;2023-02-05T12:35:27;97557.91;;;1.12;79.56
76998;BME280;65930;48.874;10.734;2023-02-05T12:38:12;97543.31;;;1.03;79.91
76998;BME280;65930;48.874;10.734;2023-02-05T12:41:08;97545.13;;;0.94;80.20
76998;BME280;65930;48.874;10.734;2023-02-05T12:43:45;97537.28;;;1.06;80.02
76998;BME280;65930;48.874;10.734;2023-02-05T12:46:36;97527.56;;;1.00;80.78
76998;BME280;65930;48.874;10.734;2023-02-05T12:49:24;97530.56;;;0.84;80.79
76998;BME280;65930;48.874;10.734;2023-02-05T12:52:09;97517.03;;;0.66;82.02
76998;BME280;65930;48.874;10.734;2023-02-05T12:54:54;97530.56;;;0.71;81.85
76998;BME280;65930;48.874;10.734;2023-02-05T12:57:37;97519.75;;;0.66;82.43
76998;BME280;65930;48.874;10.734;2023-02-05T13:00:14;97523.59;;;0.51;82.68
76998;BME280;65930;48.874;10.734;2023-02-05T13:02:54;97527.94;;;0.66;nan
76998;BME280;65930;48.874;10.734;2023-02-05T13:05:32;97524.09;;;0.67;82.54
76998;BME280;65930;48.874;10.734;2023-02-05T13:08:07;97520.44;;;0.58;82.88
76998;BME280;65930;48.874;10.734;2023-02-05T13:10:48;97518.00;;;0.56;82.88
76998;BME280;65930;48.874;10.734;2023-02-05T13:13:24;97524.59;;;0.55;82.94
76998;BME280;65930;48.874;10.734;2023-02-05T13:16:01;97524.75;;;0.31;83.25
76998;BME280;65930;48.874;10.734;2023-02-05T13:18:37;97521.28;;;0.26;84.88
76998;BME280;65930;48.874;10.734;2023-02-05T13:21:10;97515.75;;;0.31;84.73
76998;BME280;65930;48.874;10.734;2023-02-05T13:27:18;97518.00;;;0.10;85.92
76998;BME280;65930;48.874;10.734;2023-02-05T13:30:13;97511.94;;;0.32;84.51